Time;durP1;ratioP1;P1;durP2;ratioP2;P2;SDS_P1;SDS_P2;PMS_P1;PMS_P2;Temp;Humidity;BMP_temperature;BMP_pressure;BME280_temperature;BME280_humidity;BME280_pressure;Samples;Min_cycle;Max_cycle;Signal;HPM_P1;HPM_P2
2022/07/05 00:03:12;;;;;;;17.05;5.13;;;;;;;17.73;64.65;100094.25;10418454;28;20096;-65
2022/07/05 00:08:12;;;;;;;17.98;5.43;;;;;;;17.81;64.77;100111.16;10418545;28;20044;-64
2022/07/05 00:13:14;;;;;;;14.80;5.13;;;;;;;17.73;65.44;100114.91;10419868;28;20045;-64
2022/07/05 00:18:15;;;;;;;18.77;4.75;;;;;;;17.65;65.73;100109.81;10416456;28;20095;-66
2022/07/05 00:23:16;;;;;;;13.77;5.32;;;;;;;17.50;65.97;100102.09;10418236;28;20045;-65
2022/07/05 00:28:17;;;;;;;12.60;4.90;;;;;;;17.51;66.50;100115.31;10399977;28;20408;-65
2022/07/05 00:33:18;;;;;;;14.63;4.60;;;;;;;16.68;66.63;99983.97;10377073;28;20042;-65
2022/07/05 00:38:19;;;;;;;22.50;5.75;;;;;;;17.20;66.75;100078.59;10377175;28;20115;-65
2022/07/05 00:43:19;;;;;;;16.90;5.45;;;;;;;17.38;66.85;100122.63;10375555;28;20401;-64
2022/07/05 00:48:20;;;;;;;39.40;6.93;;;;;;;17.25;67.36;100104.78;10391760;28;20052;-69
2022/07/05 00:53:21;;;;;;;60.20;8.60;;;;;;;17.23;67.62;100117.56;10391001;28;20532;-70
2022/07/05 00:58:22;;;;;;;31.13;6.32;;;;;;;17.25;67.67;100129.75;10376185;28;20046;-69
2022/07/05 01:03:23;;;;;;;55.97;8.88;;;;;;;17.04;68.12;100111.31;10376767;28;20405;-69
2022/07/05 01:08:24;;;;;;;35.42;6.45;;;;;;;16.43;68.36;100008.06;10375705;28;20045;-69
2022/07/05 01:13:26;;;;;;;58.83;6.80;;;;;;;17.04;68.60;100136.28;10375495;28;20124;-69
2022/07/05 01:18:27;;;;;;;50.85;8.55;;;;;;;16.88;68.81;100110.78;10375435;28;20501;-69
2022/07/05 01:23:30;;;;;;;31.80;6.60;;;;;;;16.16;69.00;100000.16;10375485;28;20038;-71
2022/07/05 01:28:31;;;;;;;32.78;6.47;;;;;;;16.71;69.13;100090.00;10375108;28;20109;-69
2022/07/05 01:33:32;;;;;;;25.02;6.40;;;;;;;16.74;69.42;100113.72;10374352;28;20041;-69
2022/07/05 01:38:33;;;;;;;43.75;7.68;;;;;;;16.87;69.61;100130.63;10402847;28;20074;-69
2022/07/05 01:43:34;;;;;;;69.15;8.63;;;;;;;16.80;69.96;100126.31;10414739;28;20509;-69
2022/07/05 01:48:36;;;;;;;30.17;6.47;;;;;;;16.81;70.01;100126.09;10415729;28;20041;-69
2022/07/05 01:53:39;;;;;;;154.18;13.32;;;;;;;16.95;70.45;100142.94;10430064;28;20469;-69
2022/07/05 01:58:40;;;;;;;44.15;6.90;;;;;;;17.00;69.89;100139.63;10412937;28;20042;-69
2022/07/05 02:03:43;;;;;;;16.48;5.50;;;;;;;16.98;69.83;100126.41;10414134;28;20497;-69
2022/07/05 02:08:44;;;;;;;14.80;5.07;;;;;;;17.30;69.27;100145.22;10414335;28;20554;-70
2022/07/05 02:13:45;;;;;;;18.90;5.75;;;;;;;17.48;68.99;100147.16;10414768;28;20082;-69
2022/07/05 02:18:45;;;;;;;15.25;4.43;;;;;;;17.68;68.15;100158.56;10413531;28;20520;-69
2022/07/05 02:23:46;;;;;;;20.15;4.90;;;;;;;17.07;67.55;100033.88;10407917;28;20436;-70
2022/07/05 02:28:48;;;;;;;38.13;6.38;;;;;;;18.10;67.52;100148.09;10388037;28;20057;-69
2022/07/05 02:33:49;;;;;;;10.95;4.63;;;;;;;17.98;65.72;100032.44;10372818;28;20096;-69
2022/07/05 02:38:50;;;;;;;14.07;4.78;;;;;;;19.09;64.74;100135.34;10370802;28;20038;-70
2022/07/05 02:43:51;;;;;;;13.85;4.30;;;;;;;19.08;64.59;100105.94;10371589;28;20048;-70
2022/07/05 02:48:55;;;;;;;17.95;4.70;;;;;;;19.05;63.66;100018.38;10393973;28;20053;-70
2022/07/05 02:53:56;;;;;;;29.23;6.43;;;;;;;20.41;62.21;100112.59;10373146;28;20050;-70
2022/07/05 02:58:56;;;;;;;13.02;4.97;;;;;;;21.03;61.19;100146.19;10371624;28;20164;-70
2022/07/05 03:03:59;;;;;;;46.00;6.25;;;;;;;20.18;61.04;100029.03;10371528;28;20046;-70
2022/07/05 03:08:59;;;;;;;19.02;5.35;;;;;;;20.94;61.55;100159.28;10371560;28;20121;-69
2022/07/05 03:14:00;;;;;;;21.52;4.95;;;;;;;21.76;57.98;100101.25;10371981;28;20401;-70
2022/07/05 03:19:01;;;;;;;14.95;4.55;;;;;;;23.50;55.07;100162.94;10372535;28;20044;-70
2022/07/05 03:24:02;;;;;;;25.00;5.47;;;;;;;24.70;52.80;100146.09;10371795;28;20048;-70
2022/07/05 03:29:03;;;;;;;9.18;4.47;;;;;;;25.77;50.28;100153.59;10370985;28;20038;-71
2022/07/05 03:34:04;;;;;;;14.00;4.55;;;;;;;26.82;47.84;100178.13;10382277;28;20057;-71
2022/07/05 03:39:04;;;;;;;16.77;4.70;;;;;;;27.86;45.85;100149.09;10396419;28;20068;-71
2022/07/05 03:44:05;;;;;;;52.75;6.43;;;;;;;28.67;43.97;100159.13;10403963;28;20728;-72
2022/07/05 03:49:06;;;;;;;14.60;4.53;;;;;;;28.98;41.74;100134.09;10403021;28;20136;-74
2022/07/05 03:54:07;;;;;;;21.60;4.93;;;;;;;29.04;40.48;100029.03;10405674;28;20048;-71
2022/07/05 03:59:08;;;;;;;13.10;4.03;;;;;;;29.57;39.46;100099.00;10418248;28;20044;-71
2022/07/05 04:04:09;;;;;;;8.88;4.35;;;;;;;29.91;39.35;100160.84;10417254;28;20044;-72
2022/07/05 04:09:09;;;;;;;26.23;5.20;;;;;;;29.86;39.11;100159.03;10415841;28;20044;-71
2022/07/05 04:14:10;;;;;;;13.88;4.72;;;;;;;29.62;39.46;100114.56;10414437;28;20045;-71
2022/07/05 04:19:11;;;;;;;13.98;4.72;;;;;;;30.23;39.07;100149.84;10412187;28;20099;-72
2022/07/05 04:24:12;;;;;;;21.13;5.10;;;;;;;29.99;38.67;100130.81;10378517;28;20445;-71
2022/07/05 04:29:13;;;;;;;15.95;5.00;;;;;;;30.31;38.47;100148.34;10378974;28;20045;-71
2022/07/05 04:34:14;;;;;;;24.23;5.00;;;;;;;29.58;38.13;100041.19;10413438;28;20057;-72
2022/07/05 04:39:15;;;;;;;13.60;4.65;;;;;;;28.65;38.46;99901.69;10414618;28;20041;-73
2022/07/05 04:44:16;;;;;;;16.02;5.50;;;;;;;29.97;38.57;100149.47;10411364;28;20037;-70
2022/07/05 04:49:17;;;;;;;19.42;4.70;;;;;;;29.66;38.16;100145.69;10410392;28;20079;-69
2022/07/05 04:54:17;;;;;;;17.70;5.18;;;;;;;29.38;38.62;100139.25;10409643;28;20061;-70
2022/07/05 04:59:18;;;;;;;11.20;4.50;;;;;;;29.42;38.50;100143.84;10400712;28;20049;-71
2022/07/05 05:04:19;;;;;;;13.88;7.00;;;;;;;29.47;38.40;100146.50;10416214;28;20114;-70
2022/07/05 05:09:20;;;;;;;11.43;5.82;;;;;;;29.72;38.31;100117.91;10416025;28;20041;-69
2022/07/05 05:14:21;;;;;;;19.95;6.30;;;;;;;29.82;38.50;100127.84;10416213;28;20037;-70
2022/07/05 05:19:22;;;;;;;20.20;6.32;;;;;;;29.83;38.11;100128.69;10415668;28;20128;-70
2022/07/05 05:24:23;;;;;;;12.30;4.95;;;;;;;28.81;37.95;99951.47;10415493;28;20065;-70
2022/07/05 05:29:23;;;;;;;50.45;7.93;;;;;;;30.03;37.28;100120.06;10415923;28;20037;-69
2022/07/05 05:34:24;;;;;;;15.18;5.28;;;;;;;30.19;37.89;100118.66;10415751;28;20049;-70
2022/07/05 05:39:25;;;;;;;12.60;4.90;;;;;;;30.16;37.36;100097.38;10415698;28;20041;-69
2022/07/05 05:44:26;;;;;;;27.90;5.60;;;;;;;30.34;37.43;100105.81;10414763;28;20069;-70
2022/07/05 05:49:26;;;;;;;21.30;5.35;;;;;;;30.59;37.01;100118.97;10414594;28;20046;-70
2022/07/05 05:54:27;;;;;;;20.10;5.65;;;;;;;29.92;36.81;99984.47;10414358;28;20033;-70
2022/07/05 05:59:28;;;;;;;18.27;4.90;;;;;;;30.18;36.22;100004.69;10414690;28;20089;-70
2022/07/05 06:04:29;;;;;;;13.07;4.10;;;;;;;30.53;35.59;100054.41;10414376;28;20038;-70
2022/07/05 06:09:29;;;;;;;12.10;4.20;;;;;;;30.36;35.41;100002.16;10414500;28;20064;-69
2022/07/05 06:14:30;;;;;;;9.30;4.40;;;;;;;31.08;35.21;100091.81;10414214;28;20098;-69
2022/07/05 06:19:31;;;;;;;17.60;4.43;;;;;;;31.25;34.95;100089.22;10413536;28;20053;-71
2022/07/05 06:24:32;;;;;;;22.75;3.83;;;;;;;31.23;34.44;100069.53;10413780;28;20569;-70
2022/07/05 06:29:32;;;;;;;24.45;5.15;;;;;;;31.30;33.85;100058.09;10429577;28;20033;-69
2022/07/05 06:34:33;;;;;;;5.65;3.30;;;;;;;31.62;32.65;100065.25;10413521;28;20049;-70
2022/07/05 06:39:36;;;;;;;13.20;3.75;;;;;;;31.18;33.05;99959.91;10412814;28;20061;-71
2022/07/05 06:44:37;;;;;;;8.95;3.25;;;;;;;32.00;31.84;100053.78;10412015;28;20440;-70
2022/07/05 06:49:38;;;;;;;23.40;4.45;;;;;;;32.37;31.20;100070.84;10412232;28;20041;-69
2022/07/05 06:54:39;;;;;;;9.85;3.40;;;;;;;32.36;31.17;100052.75;10411764;28;20140;-70
2022/07/05 06:59:39;;;;;;;8.93;3.28;;;;;;;32.20;30.42;100055.94;10413032;28;20048;-71
2022/07/05 07:04:40;;;;;;;7.80;3.30;;;;;;;31.71;30.98;100030.41;10412930;28;20091;-69
2022/07/05 07:09:41;;;;;;;8.80;3.47;;;;;;;31.83;30.90;100043.53;10412957;28;20041;-70
2022/07/05 07:14:42;;;;;;;16.15;4.60;;;;;;;31.57;31.34;100038.75;10412726;28;20041;-70
2022/07/05 07:19:42;;;;;;;6.07;3.03;;;;;;;31.56;31.42;100052.75;10411464;28;20440;-70
2022/07/05 07:24:43;;;;;;;6.82;3.30;;;;;;;32.05;30.23;100039.91;10411963;28;20482;-69
2022/07/05 07:29:44;;;;;;;13.32;3.45;;;;;;;32.21;29.97;100038.31;10416768;28;20497;-72
2022/07/05 07:34:45;;;;;;;7.03;3.13;;;;;;;31.00;30.57;99893.16;10420189;28;20103;-69
2022/07/05 07:39:45;;;;;;;4.88;2.97;;;;;;;31.62;30.64;100035.06;10420154;28;20107;-69
2022/07/05 07:44:46;;;;;;;6.85;3.50;;;;;;;30.77;29.49;99840.25;10419891;28;20037;-69
2022/07/05 07:49:47;;;;;;;16.63;3.83;;;;;;;31.67;30.56;99996.44;10419692;28;20378;-70
2022/07/05 07:54:48;;;;;;;11.32;3.95;;;;;;;31.96;30.29;100022.59;10420722;28;20382;-70
2022/07/05 07:59:49;;;;;;;9.07;3.45;;;;;;;31.72;29.86;100021.03;10419521;28;20045;-71
2022/07/05 08:04:50;;;;;;;7.50;3.45;;;;;;;31.74;30.07;100027.03;10419327;28;20045;-70
2022/07/05 08:09:52;;;;;;;25.27;5.10;;;;;;;31.49;30.54;100020.28;10433973;28;20037;-71
2022/07/05 08:14:53;;;;;;;13.43;4.67;;;;;;;31.94;30.33;100019.34;10419934;28;20052;-71
2022/07/05 08:25:14;;;;;;;11.90;4.18;;;;;;;32.29;29.34;99905.59;10418263;28;20048;-70
2022/07/05 08:30:16;;;;;;;14.68;4.70;;;;;;;33.27;28.80;100015.22;10417800;28;20045;-70
2022/07/05 08:35:17;;;;;;;9.07;4.00;;;;;;;32.63;29.43;99953.47;10417465;28;20180;-72
2022/07/05 08:40:21;;;;;;;7.13;4.00;;;;;;;31.83;29.17;99966.63;10417338;28;20187;-71
2022/07/05 08:45:25;;;;;;;11.52;4.03;;;;;;;32.12;29.45;100032.00;10416736;28;20099;-70
2022/07/05 08:50:26;;;;;;;22.45;4.70;;;;;;;33.00;29.07;100041.16;10417569;28;20045;-70
2022/07/05 08:55:28;;;;;;;14.55;4.63;;;;;;;32.80;29.04;100035.16;10417451;28;20401;-71
2022/07/05 09:00:29;;;;;;;9.35;3.85;;;;;;;32.77;28.78;100040.50;10417158;28;20549;-70
2022/07/05 09:05:30;;;;;;;8.02;3.92;;;;;;;33.06;28.54;100032.44;10418083;28;20136;-72
2022/07/05 09:10:33;;;;;;;12.68;4.15;;;;;;;32.93;28.10;99959.09;10416909;28;20041;-70
2022/07/05 09:15:34;;;;;;;9.18;4.10;;;;;;;33.54;28.01;100034.09;10415289;28;20053;-71
2022/07/05 09:20:35;;;;;;;10.30;4.05;;;;;;;33.78;28.15;100046.50;10416426;28;20575;-70
2022/07/05 09:25:35;;;;;;;16.70;3.95;;;;;;;32.84;27.64;99917.03;10415927;28;20053;-72
2022/07/05 09:30:38;;;;;;;31.63;5.38;;;;;;;33.82;28.28;100036.41;10414551;28;20037;-70
2022/07/05 09:35:41;;;;;;;11.55;4.47;;;;;;;33.86;27.24;100029.09;10413967;28;20450;-70
2022/07/05 09:40:51;;;;;;;15.82;3.97;;;;;;;34.07;27.12;100027.25;10415533;28;20056;-70
2022/07/05 09:45:54;;;;;;;7.05;3.00;;;;;;;34.11;27.21;100023.81;10415449;28;20073;-70
2022/07/05 09:51:24;;;;;;;16.85;3.65;;;;;;;34.28;27.56;100027.28;10414354;28;20099;-70
2022/07/05 09:56:29;;;;;;;13.45;3.65;;;;;;;33.47;27.63;99898.84;10414369;28;20045;-70
2022/07/05 10:01:31;;;;;;;7.72;3.83;;;;;;;34.18;27.38;100029.59;10406616;28;20069;-71
2022/07/05 10:06:33;;;;;;;16.92;4.10;;;;;;;34.11;27.33;100026.56;10398410;28;20088;-72
2022/07/05 10:11:37;;;;;;;13.50;3.70;;;;;;;33.94;27.83;100024.69;10413827;28;20041;-70
2022/07/05 10:16:38;;;;;;;13.35;3.92;;;;;;;33.96;27.61;100037.00;10400624;28;20096;-71
2022/07/05 10:21:40;;;;;;;8.52;4.38;;;;;;;33.28;27.91;99929.53;10414161;28;20512;-71
2022/07/05 10:26:41;;;;;;;;;;;;;;;34.16;27.96;100020.84;10413775;28;20107;-70
2022/07/05 10:31:43;;;;;;;44.85;6.55;;;;;;;33.77;27.42;100018.13;10409925;28;19976;-71
2022/07/05 10:36:43;;;;;;;9.50;3.30;;;;;;;33.34;27.65;99964.00;10421105;28;20064;-71
2022/07/05 10:41:45;;;;;;;22.42;3.95;;;;;;;33.46;27.83;99974.34;10427360;28;20044;-71
2022/07/05 10:46:46;;;;;;;12.35;3.58;;;;;;;33.37;28.23;99924.81;10422959;28;20400;-71
2022/07/05 10:51:47;;;;;;;15.88;3.65;;;;;;;33.87;27.75;100008.69;10428530;28;20043;-71
2022/07/05 10:57:26;;;;;;;32.85;3.95;;;;;;;34.03;27.33;100042.81;10430418;28;20033;-69
2022/07/05 11:02:27;;;;;;;9.48;3.67;;;;;;;33.74;27.72;100015.22;10429071;28;20033;-71
2022/07/05 11:08:05;;;;;;;11.27;3.47;;;;;;;33.51;27.51;100044.97;10437250;28;20037;-71
2022/07/05 11:13:38;;;;;;;10.45;3.60;;;;;;;33.52;27.85;100041.88;10435946;28;20041;-70
2022/07/05 11:18:38;;;;;;;10.50;3.28;;;;;;;33.61;27.82;100041.84;10431193;28;20587;-70
2022/07/05 11:23:39;;;;;;;10.32;3.15;;;;;;;33.41;28.16;100024.88;10436016;28;20033;-70
2022/07/05 11:28:47;;;;;;;25.20;4.18;;;;;;;33.26;27.57;99999.81;10436602;28;20179;-72
2022/07/05 11:33:50;;;;;;;14.05;3.72;;;;;;;32.61;28.36;99950.25;10437295;28;20417;-71
2022/07/05 11:39:24;;;;;;;12.50;3.60;;;;;;;33.04;28.58;100029.19;10431536;28;20169;-71
2022/07/05 11:44:25;;;;;;;13.13;3.42;;;;;;;32.87;29.37;100031.91;10443825;28;20500;-71
2022/07/05 11:49:26;;;;;;;7.70;3.47;;;;;;;32.61;28.25;99931.00;10405802;28;20046;-71
2022/07/05 11:54:29;;;;;;;11.82;3.42;;;;;;;33.66;27.51;100038.13;10420135;28;20400;-70
2022/07/05 11:59:30;;;;;;;18.15;3.58;;;;;;;33.70;27.68;100030.81;10420148;28;20029;-70
2022/07/05 12:04:31;;;;;;;7.00;3.22;;;;;;;33.48;28.23;100001.56;10405237;28;20132;-71
2022/07/05 12:14:52;;;;;;;8.68;3.47;;;;;;;34.05;27.16;100024.00;10410127;28;20064;-70
2022/07/05 12:19:54;;;;;;;8.05;3.40;;;;;;;34.19;27.14;100012.72;10377829;28;20042;-71
2022/07/05 12:24:58;;;;;;;20.38;3.78;;;;;;;34.22;26.37;100005.72;10400855;28;20037;-72
2022/07/05 12:30:01;;;;;;;35.30;3.70;;;;;;;33.72;26.92;100009.25;10398897;28;20053;-72
2022/07/05 12:35:02;;;;;;;9.40;3.10;;;;;;;33.77;26.65;100009.03;10377051;28;20062;-70
2022/07/05 12:40:08;;;;;;;9.85;3.35;;;;;;;33.73;26.39;99977.81;10377635;28;20041;-70
2022/07/05 12:45:15;;;;;;;7.60;3.20;;;;;;;33.97;26.09;99990.97;10400271;28;20056;-70
2022/07/05 12:50:16;;;;;;;6.18;2.85;;;;;;;34.01;26.24;99998.22;10424892;28;20025;-72
2022/07/05 13:00:53;;;;;;;9.40;3.80;;;;;;;33.96;25.40;99983.84;10391515;28;20045;-69
2022/07/05 13:06:02;;;;;;;11.55;2.95;;;;;;;34.15;25.42;99998.00;10404792;28;20497;-71
2022/07/05 13:11:02;;;;;;;12.65;2.80;;;;;;;34.00;25.77;99991.09;10409993;28;20049;-74
2022/07/05 13:16:04;;;;;;;14.10;3.15;;;;;;;33.55;25.48;99895.28;10391082;28;20045;-71
2022/07/05 13:21:05;;;;;;;13.98;3.28;;;;;;;33.55;25.14;99880.69;10369657;28;20041;-72
2022/07/05 13:26:06;;;;;;;10.10;2.70;;;;;;;34.19;25.34;99998.94;10368022;28;20092;-70
2022/07/05 13:31:07;;;;;;;8.48;2.85;;;;;;;34.03;24.96;99979.44;10369222;28;20041;-71
2022/07/05 13:36:08;;;;;;;9.57;2.55;;;;;;;33.36;24.81;99887.41;10369151;28;20054;-70
2022/07/05 13:41:09;;;;;;;15.57;2.80;;;;;;;33.24;25.07;99870.00;10369117;28;20037;-71
2022/07/05 13:46:11;;;;;;;8.25;2.70;;;;;;;33.59;24.73;99967.00;10368048;28;20556;-71
2022/07/05 13:51:12;;;;;;;15.65;2.90;;;;;;;33.77;25.04;99982.31;10368048;28;20410;-73
2022/07/05 13:56:12;;;;;;;18.38;3.58;;;;;;;32.35;25.31;99795.50;10384847;28;20108;-72
2022/07/05 14:01:13;;;;;;;10.98;2.90;;;;;;;33.44;25.17;99982.09;10368345;28;20636;-71
2022/07/05 14:06:14;;;;;;;4.38;2.10;;;;;;;33.41;25.41;99982.75;10396900;28;20512;-69
2022/07/05 14:11:15;;;;;;;12.02;2.53;;;;;;;33.57;25.25;99986.63;10406835;28;20040;-72
2022/07/05 14:16:16;;;;;;;8.27;2.92;;;;;;;32.84;25.01;99878.53;10407774;28;20068;-72
2022/07/05 14:21:17;;;;;;;7.60;2.38;;;;;;;32.19;25.60;99869.38;10408484;28;20037;-71
2022/07/05 14:26:18;;;;;;;21.23;3.57;;;;;;;32.47;25.50;99990.84;10408457;28;20051;-72
2022/07/05 14:31:19;;;;;;;13.15;2.63;;;;;;;32.08;25.86;99983.53;10407989;28;20545;-73
2022/07/05 14:36:20;;;;;;;14.20;2.47;;;;;;;31.98;25.82;99984.59;10407497;28;20054;-71
2022/07/05 14:41:21;;;;;;;8.68;2.70;;;;;;;31.94;25.96;99973.47;10407158;28;20081;-72
2022/07/05 14:46:22;;;;;;;21.33;3.40;;;;;;;31.59;25.33;99890.97;10407626;28;20075;-76
2022/07/05 14:51:23;;;;;;;15.20;2.72;;;;;;;31.83;25.32;99911.69;10407372;28;20132;-71
2022/07/05 14:56:23;;;;;;;14.23;2.90;;;;;;;32.11;25.63;99969.94;10407117;28;20497;-72
2022/07/05 15:01:24;;;;;;;22.35;2.67;;;;;;;32.16;25.31;99979.94;10406659;28;20452;-72
2022/07/05 15:06:25;;;;;;;20.85;3.15;;;;;;;32.19;25.58;100004.88;10405836;28;20056;-72
2022/07/05 15:11:28;;;;;;;11.35;2.92;;;;;;;31.91;25.90;99974.09;10406990;28;20064;-73
2022/07/05 15:16:28;;;;;;;10.13;3.10;;;;;;;31.89;25.61;99998.31;10405686;28;20630;-72
2022/07/05 15:21:29;;;;;;;25.10;3.90;;;;;;;31.82;25.50;100003.44;10407347;28;20077;-72
2022/07/05 15:26:30;;;;;;;17.33;3.05;;;;;;;31.76;26.22;99994.53;10405599;28;20034;-72
2022/07/05 15:31:32;;;;;;;12.25;2.85;;;;;;;31.69;26.43;100009.88;10407053;28;20045;-72
2022/07/05 15:36:33;;;;;;;36.87;4.17;;;;;;;31.59;26.72;100024.69;10406135;28;20061;-72
2022/07/05 15:41:35;;;;;;;9.30;2.67;;;;;;;31.01;26.98;99962.53;10406435;28;20041;-72
2022/07/05 15:51:56;;;;;;;16.65;2.28;;;;;;;31.03;26.49;100045.34;10412029;28;20072;-73
2022/07/05 15:56:57;;;;;;;12.23;2.67;;;;;;;30.10;26.68;99933.44;10414033;28;20087;-73
2022/07/05 16:01:57;;;;;;;18.08;2.95;;;;;;;30.55;26.60;100049.44;10413673;28;20439;-70
2022/07/05 16:06:59;;;;;;;10.13;2.60;;;;;;;30.42;27.49;100062.06;10413028;28;20041;-72
2022/07/05 16:12:00;;;;;;;20.80;3.63;;;;;;;30.20;27.79;100051.81;10413766;28;20041;-71
2022/07/05 16:17:01;;;;;;;17.52;3.85;;;;;;;29.85;27.49;100045.09;10413270;28;20114;-72
2022/07/05 16:22:01;;;;;;;17.17;3.13;;;;;;;29.23;27.43;99987.16;10412307;28;20432;-72
2022/07/05 16:27:03;;;;;;;30.05;3.75;;;;;;;29.48;28.00;100076.16;10412018;28;20527;-72
2022/07/05 16:32:04;;;;;;;31.85;3.65;;;;;;;29.23;28.30;100069.22;10412395;28;20498;-71
2022/07/05 16:37:08;;;;;;;20.58;2.88;;;;;;;28.93;28.50;100065.00;10412455;28;20754;-72
2022/07/05 16:42:09;;;;;;;21.25;3.28;;;;;;;28.67;29.02;100073.59;10411961;28;20123;-73
2022/07/05 16:47:10;;;;;;;22.55;3.58;;;;;;;28.48;29.08;100073.59;10398839;28;20615;-73
2022/07/05 16:52:11;;;;;;;19.70;3.45;;;;;;;28.27;29.34;100081.19;10398888;28;20056;-72
2022/07/05 16:57:11;;;;;;;16.08;2.80;;;;;;;28.08;28.98;100081.13;10410945;28;20038;-72
2022/07/05 17:02:12;;;;;;;13.70;2.72;;;;;;;27.92;28.67;100085.97;10410471;28;20033;-72
2022/07/05 17:07:13;;;;;;;25.63;3.25;;;;;;;26.79;29.26;99947.06;10370739;28;20051;-72
2022/07/05 17:12:14;;;;;;;11.35;2.15;;;;;;;27.55;28.91;100100.22;10369442;28;20044;-73
2022/07/05 17:17:15;;;;;;;14.18;2.88;;;;;;;27.35;29.07;100109.41;10369903;28;20045;-73
2022/07/05 17:22:16;;;;;;;18.55;2.85;;;;;;;27.12;29.46;100130.00;10369392;28;20058;-72
2022/07/05 17:27:16;;;;;;;19.15;3.38;;;;;;;26.26;29.43;100031.28;10369880;28;20048;-72
2022/07/05 17:32:17;;;;;;;25.35;3.17;;;;;;;26.39;30.31;100087.06;10368596;28;20460;-72
2022/07/05 17:37:18;;;;;;;24.83;3.97;;;;;;;26.23;31.14;100102.63;10369327;28;20054;-73
2022/07/05 17:42:19;;;;;;;45.40;5.15;;;;;;;26.08;32.43;100135.34;10368865;28;20038;-73
2022/07/05 17:47:20;;;;;;;41.72;6.70;;;;;;;24.99;33.45;100041.28;10368731;28;20037;-72
2022/07/05 17:52:21;;;;;;;35.40;8.27;;;;;;;25.50;31.93;100147.34;10367975;28;20117;-72
2022/07/05 17:57:22;;;;;;;89.10;9.43;;;;;;;25.22;32.00;100131.56;10368114;28;20631;-71
2022/07/05 18:02:22;;;;;;;78.40;22.10;;;;;;;25.36;31.03;100162.56;10367605;28;20065;-72
2022/07/05 18:07:24;;;;;;;83.03;32.05;;;;;;;25.09;30.84;100151.06;10367243;28;20042;-73
2022/07/05 18:12:25;;;;;;;95.70;20.50;;;;;;;24.90;30.58;100156.22;10366530;28;20120;-73
2022/07/05 18:17:26;;;;;;;58.85;11.63;;;;;;;24.59;30.00;100131.66;10367719;28;20415;-72
2022/07/05 18:22:26;;;;;;;64.82;7.65;;;;;;;23.75;30.06;100024.03;10377576;28;20041;-72
2022/07/05 18:27:27;;;;;;;40.83;5.68;;;;;;;24.64;30.27;100182.47;10367412;28;20060;-72
2022/07/05 18:32:30;;;;;;;36.30;4.35;;;;;;;23.80;30.13;100060.13;10367168;28;20441;-73
2022/07/05 18:37:31;;;;;;;32.45;3.70;;;;;;;24.30;30.16;100139.38;10396809;28;20057;-73
2022/07/05 18:42:32;;;;;;;28.75;3.13;;;;;;;23.49;30.22;100033.88;10405071;28;20091;-69
2022/07/05 18:47:33;;;;;;;14.82;2.25;;;;;;;23.85;29.62;100105.47;10366358;28;20501;-69
2022/07/05 18:52:35;;;;;;;10.38;1.88;;;;;;;24.24;29.28;100170.28;10366647;28;20125;-67
2022/07/05 18:57:35;;;;;;;21.85;2.35;;;;;;;24.12;29.35;100156.91;10366464;28;20482;-68
2022/07/05 19:02:36;;;;;;;10.85;1.95;;;;;;;23.32;29.46;100042.97;10366414;28;20069;-67
2022/07/05 19:18:16;;;;;;;10.95;1.88;;;;;;;22.70;29.43;99959.53;10375295;28;20037;-66
2022/07/05 19:23:17;;;;;;;12.38;2.35;;;;;;;23.87;29.59;100155.69;10389745;28;20516;-66
2022/07/05 19:28:18;;;;;;;8.07;2.03;;;;;;;23.96;29.30;100194.00;10399179;28;20042;-66
2022/07/05 19:33:18;;;;;;;15.25;2.35;;;;;;;23.20;29.56;100091.13;10373804;28;20069;-66
2022/07/05 19:38:19;;;;;;;21.40;4.15;;;;;;;23.70;29.74;100182.13;10425351;28;20053;-66
2022/07/05 19:43:21;;;;;;;12.63;2.63;;;;;;;23.79;29.86;100191.41;10413996;28;20045;-69
2022/07/05 19:48:23;;;;;;;10.75;3.70;;;;;;;23.09;29.88;100098.31;10406804;28;20037;-66
2022/07/05 19:53:24;;;;;;;8.63;2.50;;;;;;;23.69;29.87;100194.88;10373094;28;20145;-66
2022/07/05 19:58:26;;;;;;;9.00;2.08;;;;;;;23.52;29.90;100167.03;10373542;28;20136;-67
2022/07/05 20:03:27;;;;;;;9.93;2.38;;;;;;;23.65;29.78;100190.97;10372168;28;20488;-67
2022/07/05 20:08:28;;;;;;;9.52;1.90;;;;;;;23.61;30.10;100202.63;10372175;28;20053;-69
2022/07/05 20:13:29;;;;;;;11.50;2.10;;;;;;;23.51;30.36;100214.16;10372232;28;20034;-69
2022/07/05 20:18:29;;;;;;;4.07;1.80;;;;;;;23.33;31.06;100204.50;10372150;28;20113;-68
2022/07/05 20:23:30;;;;;;;8.20;1.70;;;;;;;23.00;31.95;100208.22;10371530;28;20426;-68
2022/07/05 20:28:31;;;;;;;7.28;1.42;;;;;;;22.91;31.73;100198.88;10371944;28;20724;-68
2022/07/05 20:33:32;;;;;;;6.30;1.77;;;;;;;22.46;31.18;100116.03;10371099;28;20042;-68
2022/07/05 20:38:33;;;;;;;9.40;1.38;;;;;;;22.95;31.44;100208.19;10397745;28;20048;-68
2022/07/05 20:43:33;;;;;;;5.70;2.00;;;;;;;22.00;31.94;100091.88;10384094;28;20041;-69
2022/07/05 20:48:34;;;;;;;12.38;1.83;;;;;;;22.30;33.03;100202.44;10411449;28;20069;-70
2022/07/05 20:53:35;;;;;;;6.80;1.85;;;;;;;22.03;34.05;100198.75;10411236;28;20037;-69
2022/07/05 20:58:36;;;;;;;5.63;1.73;;;;;;;21.30;34.49;100120.25;10411710;28;20095;-69
2022/07/05 21:03:37;;;;;;;11.80;2.00;;;;;;;21.84;32.94;100212.53;10410690;28;20107;-71
2022/07/05 21:08:37;;;;;;;6.60;1.98;;;;;;;21.86;32.26;100177.94;10382706;28;20034;-67
2022/07/05 21:13:39;;;;;;;6.50;2.13;;;;;;;22.24;32.50;100211.53;10393035;28;20046;-69
2022/07/05 21:18:40;;;;;;;11.75;1.90;;;;;;;22.33;32.42;100236.28;10392118;28;20041;-71
2022/07/05 21:23:40;;;;;;;15.90;1.92;;;;;;;22.31;32.71;100223.00;10410556;28;20041;-71
2022/07/05 21:28:45;;;;;;;13.50;2.47;;;;;;;21.59;33.18;100121.00;10410285;28;20049;-68
2022/07/05 21:33:46;;;;;;;8.18;2.35;;;;;;;22.15;32.94;100215.69;10409033;28;20108;-70
2022/07/05 21:38:46;;;;;;;11.02;1.98;;;;;;;21.36;33.63;100123.88;10409690;28;20069;-71
2022/07/05 21:43:47;;;;;;;11.43;2.17;;;;;;;21.30;33.45;100112.13;10409136;28;20067;-68
2022/07/05 21:48:48;;;;;;;5.38;2.10;;;;;;;21.95;33.38;100218.09;10409381;28;20433;-68
2022/07/05 21:53:49;;;;;;;8.75;1.90;;;;;;;21.95;33.24;100220.78;10409045;28;20048;-69
2022/07/05 22:04:24;;;;;;;6.85;1.80;;;;;;;21.66;34.33;100218.19;10409299;28;20033;-71
2022/07/05 22:09:27;;;;;;;14.05;2.10;;;;;;;21.65;34.63;100232.72;10409466;28;20045;-71
2022/07/05 22:14:28;;;;;;;7.15;1.70;;;;;;;21.02;35.28;100139.97;10408076;28;20417;-68
2022/07/05 22:19:29;;;;;;;11.70;1.90;;;;;;;21.42;35.40;100212.06;10407221;28;20124;-68
2022/07/05 22:24:30;;;;;;;6.15;1.67;;;;;;;19.87;36.05;99965.56;10408282;28;20048;-68
2022/07/05 22:29:30;;;;;;;6.80;1.98;;;;;;;21.64;36.34;100248.13;10408287;28;20041;-68
2022/07/05 22:34:31;;;;;;;11.20;1.88;;;;;;;21.64;37.55;100241.91;10407400;28;20070;-68
2022/07/05 22:39:32;;;;;;;8.48;2.53;;;;;;;21.41;37.99;100205.00;10393572;28;20052;-67
2022/07/05 22:44:33;;;;;;;11.52;2.40;;;;;;;20.80;38.34;100130.94;10406136;28;20033;-68
2022/07/05 22:49:34;;;;;;;15.25;1.88;;;;;;;21.10;40.04;100247.63;10365859;28;20038;-67
2022/07/05 22:54:34;;;;;;;5.47;1.90;;;;;;;20.71;41.98;100247.38;10366795;28;20046;-68
2022/07/05 22:59:35;;;;;;;6.07;1.80;;;;;;;19.71;43.38;100143.09;10403287;28;20046;-67
2022/07/05 23:04:36;;;;;;;8.07;1.90;;;;;;;20.13;45.03;100255.44;10407101;28;20136;-67
2022/07/05 23:09:37;;;;;;;12.45;2.15;;;;;;;19.66;45.76;100228.41;10406802;28;20048;-68
2022/07/05 23:14:38;;;;;;;11.27;2.38;;;;;;;19.42;46.32;100235.56;10406559;28;20044;-68
2022/07/05 23:19:39;;;;;;;10.65;2.22;;;;;;;19.36;47.15;100256.97;10406449;28;20124;-67
2022/07/05 23:24:58;;;;;;;11.80;2.13;;;;;;;18.43;47.21;100122.72;10406767;28;20565;-68
2022/07/05 23:30:00;;;;;;;8.48;1.85;;;;;;;18.99;47.49;100250.00;10406309;28;20061;-68
2022/07/05 23:35:01;;;;;;;12.30;2.40;;;;;;;18.22;48.45;100135.56;10406670;28;20057;-68